sensor_id;sensor_type;location;lat;lon;timestamp;pressure;altitude;pressure_sealevel;temperature;humidity
23589;BME280;11972;48.078;11.876;2024-03-08T00:01:40;95380.56;;;-0.77;100.00
23589;BME280;11972;48.078;11.876;2024-03-08T00:05:40;95379.63;;;-0.76;100.00
23589;BME280;11972;48.078;11.876;2024-03-08T00:09:41;95379.84;;;-0.79;100.00
23589;BME280;11972;48.078;11.876;2024-03-08T00:13:41;95372.41;;;-0.84;100.00
23589;BME280;11972;48.078;11.876;2024-03-08T00:17:43;95377.38;;;-0.81;100.00
23589;BME280;11972;48.078;11.876;2024-03-08T00:21:44;95367.34;;;-0.85;100.00
23589;BME280;11972;48.078;11.876;2024-03-08T00:25:45;95369.97;;;-0.85;100.00
23589;BME280;11972;48.078;11.876;2024-03-08T00:29:45;95370.41;;;-0.91;100.00
23589;BME280;11972;48.078;11.876;2024-03-08T00:33:47;95374.44;;;-0.98;100.00
23589;BME280;11972;48.078;11.876;2024-03-08T00:37:47;95360.13;;;-1.04;100.00
23589;BME280;11972;48.078;11.876;2024-03-08T00:41:47;95356.94;;;-1.08;100.00
23589;BME280;11972;48.078;11.876;2024-03-08T00:45:48;95354.59;;;-1.11;100.00
23589;BME280;11972;48.078;11.876;2024-03-08T00:49:49;95348.00;;;-1.15;100.00
23589;BME280;11972;48.078;11.876;2024-03-08T00:53:49;95346.81;;;-1.22;100.00
23589;BME280;11972;48.078;11.876;2024-03-08T00:57:50;95333.59;;;-1.30;100.00
23589;BME280;11972;48.078;11.876;2024-03-08T01:01:50;95330.28;;;-1.32;100.00
23589;BME280;11972;48.078;11.876;2024-03-08T01:05:51;95326.50;;;-1.28;100.00
23589;BME280;11972;48.078;11.876;2024-03-08T01:09:51;95328.88;;;-1.25;100.00
23589;BME280;11972;48.078;11.876;2024-03-08T01:13:54;95323.00;;;-1.27;100.00
23589;BME280;11972;48.078;11.876;2024-03-08T01:17:54;95317.81;;;-1.27;100.00
23589;BME280;11972;48.078;11.876;2024-03-08T01:21:55;95312.50;;;-1.26;100.00
23589;BME280;11972;48.078;11.876;2024-03-08T01:25:56;95306.50;;;-1.26;100.00
23589;BME280;11972;48.078;11.876;2024-03-08T01:29:57;95294.94;;;-1.33;100.00
23589;BME280;11972;48.078;11.876;2024-03-08T01:33:59;95298.25;;;-1.31;100.00
23589;BME280;11972;48.078;11.876;2024-03-08T01:38:00;95286.22;;;-1.32;100.00
23589;BME280;11972;48.078;11.876;2024-03-08T01:42:00;95285.03;;;-1.28;100.00
23589;BME280;11972;48.078;11.876;2024-03-08T01:46:01;95276.44;;;-1.29;100.00
23589;BME280;11972;48.078;11.876;2024-03-08T01:50:02;95275.88;;;-1.21;100.00
23589;BME280;11972;48.078;11.876;2024-03-08T01:54:10;95265.72;;;-1.24;100.00
23589;BME280;11972;48.078;11.876;2024-03-08T01:58:11;95263.75;;;-1.32;100.00
23589;BME280;11972;48.078;11.876;2024-03-08T02:02:14;95257.50;;;-1.29;100.00
23589;BME280;11972;48.078;11.876;2024-03-08T02:06:17;95254.91;;;-1.29;100.00
23589;BME280;11972;48.078;11.876;2024-03-08T02:10:18;95253.63;;;-1.35;100.00
23589;BME280;11972;48.078;11.876;2024-03-08T02:14:18;95242.06;;;-1.42;100.00
23589;BME280;11972;48.078;11.876;2024-03-08T02:18:19;95246.16;;;-1.51;100.00
23589;BME280;11972;48.078;11.876;2024-03-08T02:22:19;95250.41;;;-1.50;100.00
23589;BME280;11972;48.078;11.876;2024-03-08T02:26:20;95239.69;;;-1.56;100.00
23589;BME280;11972;48.078;11.876;2024-03-08T02:30:20;95239.19;;;-1.61;100.00
23589;BME280;11972;48.078;11.876;2024-03-08T02:34:21;95239.34;;;-1.52;100.00
23589;BME280;11972;48.078;11.876;2024-03-08T02:38:22;95235.81;;;-1.39;100.00
23589;BME280;11972;48.078;11.876;2024-03-08T02:42:24;95225.81;;;-1.44;100.00
23589;BME280;11972;48.078;11.876;2024-03-08T02:46:24;95222.53;;;-1.35;100.00
23589;BME280;11972;48.078;11.876;2024-03-08T02:50:25;95215.22;;;-1.30;100.00
23589;BME280;11972;48.078;11.876;2024-03-08T02:54:25;95209.44;;;-1.33;100.00
23589;BME280;11972;48.078;11.876;2024-03-08T02:58:26;95218.38;;;-1.37;100.00
23589;BME280;11972;48.078;11.876;2024-03-08T03:02:26;95219.09;;;-1.46;100.00
23589;BME280;11972;48.078;11.876;2024-03-08T03:06:27;95206.13;;;-1.58;100.00
23589;BME280;11972;48.078;11.876;2024-03-08T03:10:27;95212.38;;;-1.60;100.00
23589;BME280;11972;48.078;11.876;2024-03-08T03:14:28;95217.66;;;-1.62;100.00
23589;BME280;11972;48.078;11.876;2024-03-08T03:18:28;95214.25;;;-1.62;100.00
23589;BME280;11972;48.078;11.876;2024-03-08T03:22:29;95210.00;;;-1.63;100.00
23589;BME280;11972;48.078;11.876;2024-03-08T03:26:30;95209.19;;;-1.64;100.00
23589;BME280;11972;48.078;11.876;2024-03-08T03:30:31;95214.09;;;-1.61;100.00
23589;BME280;11972;48.078;11.876;2024-03-08T03:34:34;95212.25;;;-1.59;100.00
23589;BME280;11972;48.078;11.876;2024-03-08T03:38:36;95212.72;;;-1.54;100.00
23589;BME280;11972;48.078;11.876;2024-03-08T03:42:36;95210.84;;;-1.40;100.00
23589;BME280;11972;48.078;11.876;2024-03-08T03:46:41;95203.53;;;-1.24;100.00
23589;BME280;11972;48.078;11.876;2024-03-08T03:50:44;95206.13;;;-1.13;100.00
23589;BME280;11972;48.078;11.876;2024-03-08T03:54:44;95207.78;;;-1.01;100.00
23589;BME280;11972;48.078;11.876;2024-03-08T03:58:45;95197.41;;;-0.89;100.00
23589;BME280;11972;48.078;11.876;2024-03-08T04:02:45;95191.41;;;-0.90;100.00
23589;BME280;11972;48.078;11.876;2024-03-08T04:06:46;95195.41;;;-0.86;100.00
23589;BME280;11972;48.078;11.876;2024-03-08T04:10:47;95186.78;;;-0.86;100.00
23589;BME280;11972;48.078;11.876;2024-03-08T04:14:48;95183.13;;;-0.84;100.00
23589;BME280;11972;48.078;11.876;2024-03-08T04:18:48;95183.34;;;-0.76;100.00
23589;BME280;11972;48.078;11.876;2024-03-08T04:22:49;95185.31;;;-0.68;100.00
23589;BME280;11972;48.078;11.876;2024-03-08T04:26:49;95190.72;;;-0.60;100.00
23589;BME280;11972;48.078;11.876;2024-03-08T04:30:50;95178.56;;;-0.48;100.00
23589;BME280;11972;48.078;11.876;2024-03-08T04:34:50;95171.94;;;-0.41;100.00
23589;BME280;11972;48.078;11.876;2024-03-08T04:38:51;95173.88;;;-0.33;100.00
23589;BME280;11972;48.078;11.876;2024-03-08T04:42:51;95172.69;;;-0.29;100.00
23589;BME280;11972;48.078;11.876;2024-03-08T04:46:52;95170.56;;;-0.24;100.00
23589;BME280;11972;48.078;11.876;2024-03-08T04:50:52;95158.28;;;-0.22;100.00
23589;BME280;11972;48.078;11.876;2024-03-08T04:54:53;95163.91;;;-0.17;100.00
23589;BME280;11972;48.078;11.876;2024-03-08T04:58:54;95157.97;;;-0.08;100.00
23589;BME280;11972;48.078;11.876;2024-03-08T05:02:54;95156.00;;;0.06;100.00
23589;BME280;11972;48.078;11.876;2024-03-08T05:06:55;95161.38;;;0.14;100.00
23589;BME280;11972;48.078;11.876;2024-03-08T05:10:55;95160.75;;;0.21;100.00
23589;BME280;11972;48.078;11.876;2024-03-08T05:14:56;95158.72;;;0.25;100.00
23589;BME280;11972;48.078;11.876;2024-03-08T05:18:57;95152.50;;;0.37;100.00
23589;BME280;11972;48.078;11.876;2024-03-08T05:22:57;95155.53;;;0.42;100.00
23589;BME280;11972;48.078;11.876;2024-03-08T05:27:00;95147.50;;;0.45;100.00
23589;BME280;11972;48.078;11.876;2024-03-08T05:31:00;95149.81;;;0.48;100.00
23589;BME280;11972;48.078;11.876;2024-03-08T05:35:01;95141.09;;;0.49;100.00
23589;BME280;11972;48.078;11.876;2024-03-08T05:39:03;95138.47;;;0.49;100.00
23589;BME280;11972;48.078;11.876;2024-03-08T05:43:06;95149.31;;;0.55;100.00
23589;BME280;11972;48.078;11.876;2024-03-08T05:47:06;95147.13;;;0.60;100.00
23589;BME280;11972;48.078;11.876;2024-03-08T05:51:07;95139.34;;;0.60;100.00
23589;BME280;11972;48.078;11.876;2024-03-08T05:55:07;95138.13;;;0.64;100.00
23589;BME280;11972;48.078;11.876;2024-03-08T05:59:11;95127.47;;;0.67;100.00
23589;BME280;11972;48.078;11.876;2024-03-08T06:03:11;95125.53;;;0.69;100.00
23589;BME280;11972;48.078;11.876;2024-03-08T06:07:12;95127.75;;;0.73;100.00
23589;BME280;11972;48.078;11.876;2024-03-08T06:11:12;95126.97;;;0.83;100.00
23589;BME280;11972;48.078;11.876;2024-03-08T06:15:14;95121.22;;;0.89;100.00
23589;BME280;11972;48.078;11.876;2024-03-08T06:19:15;95120.41;;;0.88;100.00
23589;BME280;11972;48.078;11.876;2024-03-08T06:23:15;95125.06;;;0.94;100.00
23589;BME280;11972;48.078;11.876;2024-03-08T06:27:18;95128.38;;;0.96;100.00
23589;BME280;11972;48.078;11.876;2024-03-08T06:31:19;95137.00;;;1.07;100.00
23589;BME280;11972;48.078;11.876;2024-03-08T06:35:20;95132.91;;;1.14;100.00
23589;BME280;11972;48.078;11.876;2024-03-08T06:39:20;95131.44;;;1.21;100.00
23589;BME280;11972;48.078;11.876;2024-03-08T06:43:20;95130.63;;;1.30;100.00
23589;BME280;11972;48.078;11.876;2024-03-08T06:47:21;95126.53;;;1.37;100.00
23589;BME280;11972;48.078;11.876;2024-03-08T06:51:22;95123.78;;;1.39;100.00
23589;BME280;11972;48.078;11.876;2024-03-08T06:55:22;95129.00;;;1.48;100.00
23589;BME280;11972;48.078;11.876;2024-03-08T06:59:23;95140.22;;;1.59;100.00
23589;BME280;11972;48.078;11.876;2024-03-08T07:03:23;95135.59;;;1.53;100.00
23589;BME280;11972;48.078;11.876;2024-03-08T07:07:24;95135.84;;;1.49;100.00
23589;BME280;11972;48.078;11.876;2024-03-08T07:11:24;95132.28;;;1.51;100.00
23589;BME280;11972;48.078;11.876;2024-03-08T07:15:25;95135.56;;;1.72;100.00
23589;BME280;11972;48.078;11.876;2024-03-08T07:19:26;95138.03;;;1.93;100.00
23589;BME280;11972;48.078;11.876;2024-03-08T07:23:26;95136.09;;;2.05;100.00
23589;BME280;11972;48.078;11.876;2024-03-08T07:27:52;95124.59;;;2.07;100.00
23589;BME280;11972;48.078;11.876;2024-03-08T07:31:53;95130.34;;;2.11;100.00
23589;BME280;11972;48.078;11.876;2024-03-08T07:36:11;95116.09;;;1.95;100.00
23589;BME280;11972;48.078;11.876;2024-03-08T07:40:12;95123.09;;;1.95;100.00
23589;BME280;11972;48.078;11.876;2024-03-08T07:44:13;95115.75;;;2.18;100.00
23589;BME280;11972;48.078;11.876;2024-03-08T07:48:14;95116.25;;;2.41;100.00
23589;BME280;11972;48.078;11.876;2024-03-08T07:52:14;95121.44;;;2.51;100.00
23589;BME280;11972;48.078;11.876;2024-03-08T07:56:18;95110.19;;;2.60;100.00
23589;BME280;11972;48.078;11.876;2024-03-08T08:00:18;95121.00;;;2.65;100.00
23589;BME280;11972;48.078;11.876;2024-03-08T08:04:19;95123.88;;;2.62;100.00
23589;BME280;11972;48.078;11.876;2024-03-08T08:08:24;95107.69;;;2.68;100.00
23589;BME280;11972;48.078;11.876;2024-03-08T08:12:26;95101.19;;;2.72;100.00
23589;BME280;11972;48.078;11.876;2024-03-08T08:16:28;95105.16;;;2.76;100.00
23589;BME280;11972;48.078;11.876;2024-03-08T08:20:29;95101.00;;;2.83;100.00
23589;BME280;11972;48.078;11.876;2024-03-08T08:24:29;95087.41;;;3.07;100.00
23589;BME280;11972;48.078;11.876;2024-03-08T08:28:30;95092.75;;;3.51;100.00
23589;BME280;11972;48.078;11.876;2024-03-08T08:32:32;95084.81;;;3.61;100.00
23589;BME280;11972;48.078;11.876;2024-03-08T08:36:32;95080.88;;;3.39;100.00
23589;BME280;11972;48.078;11.876;2024-03-08T08:40:34;95072.66;;;3.16;100.00
23589;BME280;11972;48.078;11.876;2024-03-08T08:44:36;95069.47;;;3.22;100.00
23589;BME280;11972;48.078;11.876;2024-03-08T08:48:36;95070.44;;;3.39;100.00
23589;BME280;11972;48.078;11.876;2024-03-08T08:52:37;95071.69;;;3.53;100.00
23589;BME280;11972;48.078;11.876;2024-03-08T08:56:38;95063.22;;;3.51;100.00
23589;BME280;11972;48.078;11.876;2024-03-08T09:00:38;95060.06;;;3.65;100.00
23589;BME280;11972;48.078;11.876;2024-03-08T09:04:39;95054.44;;;3.78;100.00
23589;BME280;11972;48.078;11.876;2024-03-08T09:08:39;95052.81;;;4.03;100.00
23589;BME280;11972;48.078;11.876;2024-03-08T09:12:40;95048.09;;;4.06;100.00
23589;BME280;11972;48.078;11.876;2024-03-08T09:16:40;95040.56;;;4.29;100.00
23589;BME280;11972;48.078;11.876;2024-03-08T09:20:41;95035.28;;;4.21;100.00
23589;BME280;11972;48.078;11.876;2024-03-08T09:24:41;95037.66;;;4.32;100.00
23589;BME280;11972;48.078;11.876;2024-03-08T09:28:43;95041.72;;;4.69;100.00
23589;BME280;11972;48.078;11.876;2024-03-08T09:32:45;95026.59;;;4.97;100.00
23589;BME280;11972;48.078;11.876;2024-03-08T09:36:46;95029.75;;;5.17;100.00
23589;BME280;11972;48.078;11.876;2024-03-08T09:40:47;95020.63;;;5.37;100.00
23589;BME280;11972;48.078;11.876;2024-03-08T09:44:48;95016.06;;;5.56;100.00
23589;BME280;11972;48.078;11.876;2024-03-08T09:48:49;95005.72;;;5.62;100.00
23589;BME280;11972;48.078;11.876;2024-03-08T09:52:49;95002.78;;;5.73;100.00
23589;BME280;11972;48.078;11.876;2024-03-08T09:56:51;95003.28;;;5.93;100.00
23589;BME280;11972;48.078;11.876;2024-03-08T10:00:52;94995.06;;;6.05;100.00
23589;BME280;11972;48.078;11.876;2024-03-08T10:04:52;94985.50;;;6.28;100.00
23589;BME280;11972;48.078;11.876;2024-03-08T10:08:53;94982.84;;;6.36;100.00
23589;BME280;11972;48.078;11.876;2024-03-08T10:12:55;94976.34;;;6.16;100.00
23589;BME280;11972;48.078;11.876;2024-03-08T10:16:57;94976.06;;;5.86;100.00
23589;BME280;11972;48.078;11.876;2024-03-08T10:21:07;94974.44;;;6.02;100.00
23589;BME280;11972;48.078;11.876;2024-03-08T10:25:11;94960.44;;;6.26;100.00
23589;BME280;11972;48.078;11.876;2024-03-08T10:29:12;94957.34;;;6.61;100.00
23589;BME280;11972;48.078;11.876;2024-03-08T10:33:15;94945.56;;;6.88;100.00
23589;BME280;11972;48.078;11.876;2024-03-08T10:37:16;94945.44;;;7.05;100.00
23589;BME280;11972;48.078;11.876;2024-03-08T10:41:24;94947.03;;;6.83;100.00
23589;BME280;11972;48.078;11.876;2024-03-08T10:49:37;94935.09;;;7.03;100.00
23589;BME280;11972;48.078;11.876;2024-03-08T10:53:39;94935.06;;;7.11;100.00
23589;BME280;11972;48.078;11.876;2024-03-08T10:57:42;94921.91;;;7.34;100.00
23589;BME280;11972;48.078;11.876;2024-03-08T11:01:43;94909.97;;;7.09;100.00
23589;BME280;11972;48.078;11.876;2024-03-08T11:05:43;94920.34;;;7.25;100.00
23589;BME280;11972;48.078;11.876;2024-03-08T11:09:44;94913.44;;;7.24;100.00
23589;BME280;11972;48.078;11.876;2024-03-08T11:13:45;94911.72;;;7.54;100.00
23589;BME280;11972;48.078;11.876;2024-03-08T11:17:49;94896.09;;;7.76;100.00
23589;BME280;11972;48.078;11.876;2024-03-08T11:22:01;94882.41;;;7.80;100.00
23589;BME280;11972;48.078;11.876;2024-03-08T11:26:02;94882.03;;;7.83;100.00
23589;BME280;11972;48.078;11.876;2024-03-08T11:30:07;94873.59;;;7.88;100.00
23589;BME280;11972;48.078;11.876;2024-03-08T11:34:15;94868.97;;;8.05;100.00
23589;BME280;11972;48.078;11.876;2024-03-08T11:38:16;94845.66;;;8.16;100.00
23589;BME280;11972;48.078;11.876;2024-03-08T11:42:17;94846.56;;;8.24;100.00
23589;BME280;11972;48.078;11.876;2024-03-08T11:46:19;94843.66;;;8.18;100.00
23589;BME280;11972;48.078;11.876;2024-03-08T11:50:20;94840.63;;;8.36;100.00
23589;BME280;11972;48.078;11.876;2024-03-08T11:54:23;94845.31;;;8.56;100.00
23589;BME280;11972;48.078;11.876;2024-03-08T11:58:24;94837.88;;;8.59;100.00
23589;BME280;11972;48.078;11.876;2024-03-08T12:02:25;94827.34;;;8.23;100.00
23589;BME280;11972;48.078;11.876;2024-03-08T12:06:25;94829.13;;;8.37;100.00
23589;BME280;11972;48.078;11.876;2024-03-08T12:10:27;94826.47;;;8.52;100.00
23589;BME280;11972;48.078;11.876;2024-03-08T12:14:28;94819.06;;;8.41;100.00
23589;BME280;11972;48.078;11.876;2024-03-08T12:18:29;94817.13;;;8.35;100.00
23589;BME280;11972;48.078;11.876;2024-03-08T12:22:30;94803.00;;;8.36;100.00
23589;BME280;11972;48.078;11.876;2024-03-08T12:26:30;94798.66;;;8.13;100.00
23589;BME280;11972;48.078;11.876;2024-03-08T12:30:32;94792.44;;;8.00;100.00
23589;BME280;11972;48.078;11.876;2024-03-08T12:34:33;94783.69;;;8.14;100.00
23589;BME280;11972;48.078;11.876;2024-03-08T12:38:35;94781.84;;;8.44;100.00
23589;BME280;11972;48.078;11.876;2024-03-08T12:42:37;94780.28;;;8.71;100.00
23589;BME280;11972;48.078;11.876;2024-03-08T12:46:39;94758.44;;;8.34;100.00
23589;BME280;11972;48.078;11.876;2024-03-08T12:50:44;94759.84;;;8.52;100.00
23589;BME280;11972;48.078;11.876;2024-03-08T12:54:45;94752.09;;;8.65;100.00
23589;BME280;11972;48.078;11.876;2024-03-08T12:58:47;94751.28;;;8.92;100.00
23589;BME280;11972;48.078;11.876;2024-03-08T13:02:48;94749.97;;;9.03;100.00
23589;BME280;11972;48.078;11.876;2024-03-08T13:06:50;94737.47;;;9.12;100.00
23589;BME280;11972;48.078;11.876;2024-03-08T13:10:50;94736.44;;;9.13;100.00
23589;BME280;11972;48.078;11.876;2024-03-08T13:14:51;94732.03;;;9.20;100.00
23589;BME280;11972;48.078;11.876;2024-03-08T13:18:51;94732.28;;;9.25;100.00
23589;BME280;11972;48.078;11.876;2024-03-08T13:22:52;94718.72;;;9.28;100.00
23589;BME280;11972;48.078;11.876;2024-03-08T13:26:52;94712.25;;;9.31;100.00
23589;BME280;11972;48.078;11.876;2024-03-08T13:30:53;94716.16;;;9.41;100.00
23589;BME280;11972;48.078;11.876;2024-03-08T13:34:54;94706.78;;;9.32;100.00
23589;BME280;11972;48.078;11.876;2024-03-08T13:38:55;94706.78;;;9.32;100.00
23589;BME280;11972;48.078;11.876;2024-03-08T13:42:59;94701.13;;;9.35;100.00
23589;BME280;11972;48.078;11.876;2024-03-08T13:47:01;94700.13;;;9.36;100.00
23589;BME280;11972;48.078;11.876;2024-03-08T13:51:05;94706.09;;;9.52;100.00
23589;BME280;11972;48.078;11.876;2024-03-08T13:55:15;94694.78;;;9.23;100.00
23589;BME280;11972;48.078;11.876;2024-03-08T13:59:16;94684.34;;;9.50;100.00
23589;BME280;11972;48.078;11.876;2024-03-08T14:03:16;94684.91;;;9.86;100.00
23589;BME280;11972;48.078;11.876;2024-03-08T14:07:17;94674.81;;;9.97;100.00
23589;BME280;11972;48.078;11.876;2024-03-08T14:11:17;94671.59;;;10.01;100.00
23589;BME280;11972;48.078;11.876;2024-03-08T14:15:18;94655.38;;;10.17;100.00
23589;BME280;11972;48.078;11.876;2024-03-08T14:19:20;94654.00;;;10.35;100.00
23589;BME280;11972;48.078;11.876;2024-03-08T14:23:21;94654.16;;;10.20;100.00
23589;BME280;11972;48.078;11.876;2024-03-08T14:27:22;94653.34;;;10.13;100.00
23589;BME280;11972;48.078;11.876;2024-03-08T14:31:23;94648.63;;;9.95;100.00
23589;BME280;11972;48.078;11.876;2024-03-08T14:35:26;94632.88;;;10.28;100.00
23589;BME280;11972;48.078;11.876;2024-03-08T14:39:26;94634.91;;;10.39;100.00
23589;BME280;11972;48.078;11.876;2024-03-08T14:43:29;94630.41;;;10.20;100.00
23589;BME280;11972;48.078;11.876;2024-03-08T14:47:29;94627.19;;;10.31;100.00
23589;BME280;11972;48.078;11.876;2024-03-08T14:51:30;94617.06;;;10.41;100.00
23589;BME280;11972;48.078;11.876;2024-03-08T14:55:31;94620.69;;;10.80;100.00
23589;BME280;11972;48.078;11.876;2024-03-08T14:59:32;94617.16;;;11.13;100.00
23589;BME280;11972;48.078;11.876;2024-03-08T15:03:35;94617.69;;;11.35;100.00
23589;BME280;11972;48.078;11.876;2024-03-08T15:07:38;94616.66;;;11.42;100.00
23589;BME280;11972;48.078;11.876;2024-03-08T15:11:48;94604.41;;;11.03;100.00
23589;BME280;11972;48.078;11.876;2024-03-08T15:15:50;94599.38;;;10.75;100.00
23589;BME280;11972;48.078;11.876;2024-03-08T15:19:57;94593.72;;;10.38;100.00
23589;BME280;11972;48.078;11.876;2024-03-08T15:23:57;94599.16;;;10.17;100.00
23589;BME280;11972;48.078;11.876;2024-03-08T15:27:58;94587.16;;;10.08;100.00
23589;BME280;11972;48.078;11.876;2024-03-08T15:31:58;94584.31;;;9.89;100.00
23589;BME280;11972;48.078;11.876;2024-03-08T15:35:59;94587.91;;;9.68;100.00
23589;BME280;11972;48.078;11.876;2024-03-08T15:40:00;94581.78;;;9.48;100.00
23589;BME280;11972;48.078;11.876;2024-03-08T15:44:07;94579.69;;;9.30;100.00
23589;BME280;11972;48.078;11.876;2024-03-08T15:48:07;94582.09;;;9.25;100.00
23589;BME280;11972;48.078;11.876;2024-03-08T15:52:08;94583.63;;;9.06;100.00
23589;BME280;11972;48.078;11.876;2024-03-08T15:56:08;94579.44;;;8.84;100.00
23589;BME280;11972;48.078;11.876;2024-03-08T16:00:11;94575.94;;;8.70;100.00
23589;BME280;11972;48.078;11.876;2024-03-08T16:04:18;94582.13;;;8.56;100.00
23589;BME280;11972;48.078;11.876;2024-03-08T16:08:20;94576.44;;;8.52;100.00
23589;BME280;11972;48.078;11.876;2024-03-08T16:12:21;94579.41;;;8.42;100.00
23589;BME280;11972;48.078;11.876;2024-03-08T16:16:23;94580.66;;;8.25;100.00
23589;BME280;11972;48.078;11.876;2024-03-08T16:20:23;94582.97;;;8.07;100.00
23589;BME280;11972;48.078;11.876;2024-03-08T16:24:25;94576.72;;;7.86;100.00
23589;BME280;11972;48.078;11.876;2024-03-08T16:28:26;94572.81;;;7.82;100.00
23589;BME280;11972;48.078;11.876;2024-03-08T16:32:28;94578.69;;;7.63;100.00
23589;BME280;11972;48.078;11.876;2024-03-08T16:36:28;94575.94;;;7.50;100.00
23589;BME280;11972;48.078;11.876;2024-03-08T16:40:28;94570.00;;;7.41;100.00
23589;BME280;11972;48.078;11.876;2024-03-08T16:44:29;94574.50;;;7.32;100.00
23589;BME280;11972;48.078;11.876;2024-03-08T16:48:30;94586.13;;;7.23;100.00
23589;BME280;11972;48.078;11.876;2024-03-08T16:52:31;94581.53;;;7.10;100.00
23589;BME280;11972;48.078;11.876;2024-03-08T16:56:35;94575.16;;;6.83;100.00
23589;BME280;11972;48.078;11.876;2024-03-08T17:00:38;94574.78;;;6.57;100.00
23589;BME280;11972;48.078;11.876;2024-03-08T17:04:38;94575.50;;;6.36;100.00
23589;BME280;11972;48.078;11.876;2024-03-08T17:08:39;94572.91;;;6.13;100.00
23589;BME280;11972;48.078;11.876;2024-03-08T17:12:43;94576.34;;;5.99;100.00
23589;BME280;11972;48.078;11.876;2024-03-08T17:16:44;94579.06;;;5.82;100.00
23589;BME280;11972;48.078;11.876;2024-03-08T17:20:44;94573.75;;;5.67;100.00
23589;BME280;11972;48.078;11.876;2024-03-08T17:24:45;94577.94;;;5.54;100.00
23589;BME280;11972;48.078;11.876;2024-03-08T17:28:45;94577.31;;;5.52;100.00
23589;BME280;11972;48.078;11.876;2024-03-08T17:33:13;94584.28;;;5.36;100.00
23589;BME280;11972;48.078;11.876;2024-03-08T17:37:21;94584.66;;;5.25;100.00
23589;BME280;11972;48.078;11.876;2024-03-08T17:41:23;94587.66;;;5.14;100.00
23589;BME280;11972;48.078;11.876;2024-03-08T17:45:24;94583.47;;;5.05;100.00
23589;BME280;11972;48.078;11.876;2024-03-08T17:49:25;94586.38;;;5.10;100.00
23589;BME280;11972;48.078;11.876;2024-03-08T17:53:26;94582.19;;;5.01;100.00
23589;BME280;11972;48.078;11.876;2024-03-08T17:57:26;94578.16;;;4.90;100.00
23589;BME280;11972;48.078;11.876;2024-03-08T18:01:27;94577.34;;;4.81;100.00
23589;BME280;11972;48.078;11.876;2024-03-08T18:05:28;94579.03;;;4.74;100.00
23589;BME280;11972;48.078;11.876;2024-03-08T18:09:32;94572.81;;;4.75;100.00
23589;BME280;11972;48.078;11.876;2024-03-08T18:13:32;94577.88;;;4.68;100.00
23589;BME280;11972;48.078;11.876;2024-03-08T18:17:33;94569.63;;;4.57;100.00
23589;BME280;11972;48.078;11.876;2024-03-08T18:21:34;94570.59;;;4.47;100.00
23589;BME280;11972;48.078;11.876;2024-03-08T18:25:36;94564.25;;;4.42;100.00
23589;BME280;11972;48.078;11.876;2024-03-08T18:29:37;94560.34;;;4.38;100.00
23589;BME280;11972;48.078;11.876;2024-03-08T18:33:40;94553.97;;;4.40;100.00
23589;BME280;11972;48.078;11.876;2024-03-08T18:37:45;94544.84;;;4.36;100.00
23589;BME280;11972;48.078;11.876;2024-03-08T18:41:46;94541.25;;;4.29;100.00
23589;BME280;11972;48.078;11.876;2024-03-08T18:45:47;94536.34;;;4.26;100.00
23589;BME280;11972;48.078;11.876;2024-03-08T18:49:47;94536.38;;;4.18;100.00
23589;BME280;11972;48.078;11.876;2024-03-08T18:53:47;94532.81;;;4.03;100.00
23589;BME280;11972;48.078;11.876;2024-03-08T18:57:48;94526.94;;;3.92;100.00
23589;BME280;11972;48.078;11.876;2024-03-08T19:01:49;94516.50;;;3.84;100.00
23589;BME280;11972;48.078;11.876;2024-03-08T19:05:50;94517.50;;;3.83;100.00
23589;BME280;11972;48.078;11.876;2024-03-08T19:09:51;94514.41;;;3.80;100.00
23589;BME280;11972;48.078;11.876;2024-03-08T19:13:51;94511.31;;;3.68;100.00
23589;BME280;11972;48.078;11.876;2024-03-08T19:17:53;94506.72;;;3.62;100.00
23589;BME280;11972;48.078;11.876;2024-03-08T19:21:54;94503.31;;;3.61;100.00
23589;BME280;11972;48.078;11.876;2024-03-08T19:25:55;94507.72;;;3.53;100.00
23589;BME280;11972;48.078;11.876;2024-03-08T19:29:56;94509.19;;;3.47;100.00
23589;BME280;11972;48.078;11.876;2024-03-08T19:33:56;94499.56;;;3.47;100.00
23589;BME280;11972;48.078;11.876;2024-03-08T19:37:58;94497.94;;;3.46;100.00
23589;BME280;11972;48.078;11.876;2024-03-08T19:41:58;94494.03;;;3.34;100.00
23589;BME280;11972;48.078;11.876;2024-03-08T19:45:59;94496.28;;;3.29;100.00
23589;BME280;11972;48.078;11.876;2024-03-08T19:50:00;94502.34;;;3.21;100.00
23589;BME280;11972;48.078;11.876;2024-03-08T19:54:01;94490.59;;;3.09;100.00
23589;BME280;11972;48.078;11.876;2024-03-08T19:58:02;94494.00;;;3.02;100.00
23589;BME280;11972;48.078;11.876;2024-03-08T20:02:04;94500.63;;;2.88;100.00
23589;BME280;11972;48.078;11.876;2024-03-08T20:06:04;94495.56;;;2.78;100.00
23589;BME280;11972;48.078;11.876;2024-03-08T20:10:07;94503.03;;;2.65;100.00
23589;BME280;11972;48.078;11.876;2024-03-08T20:14:10;94489.97;;;2.48;100.00
23589;BME280;11972;48.078;11.876;2024-03-08T20:18:11;94484.72;;;2.40;100.00
23589;BME280;11972;48.078;11.876;2024-03-08T20:22:11;94481.25;;;2.32;100.00
23589;BME280;11972;48.078;11.876;2024-03-08T20:26:12;94490.16;;;2.21;100.00
23589;BME280;11972;48.078;11.876;2024-03-08T20:30:16;94480.69;;;2.12;100.00
23589;BME280;11972;48.078;11.876;2024-03-08T20:34:22;94477.41;;;2.10;100.00
23589;BME280;11972;48.078;11.876;2024-03-08T20:38:23;94477.75;;;2.07;100.00
23589;BME280;11972;48.078;11.876;2024-03-08T20:42:26;94478.84;;;2.04;100.00
23589;BME280;11972;48.078;11.876;2024-03-08T20:46:28;94482.91;;;1.98;100.00
23589;BME280;11972;48.078;11.876;2024-03-08T20:50:29;94471.94;;;1.87;100.00
23589;BME280;11972;48.078;11.876;2024-03-08T20:54:29;94468.19;;;1.81;100.00
23589;BME280;11972;48.078;11.876;2024-03-08T20:58:30;94466.00;;;1.77;100.00
23589;BME280;11972;48.078;11.876;2024-03-08T21:02:31;94456.44;;;1.77;100.00